KCUH/CUH METAR and TAF weather

Enter ICAO airport designator
Station Type Date Time Source
KCUH METAR 2019/12/13 01:15 UTC NOAA

KCUH 130115Z AUTO 00000KT 10SM OVC048 08/01 A3004 RMK AO2 T00770008


Station Type Date Time Source
KCUH Decoded METAR 2019/12/13 01:15 UTC NOAA

Cushing, Cushing Municipal Airport, OK, United States (KCUH) 35-56-59N 096-46-22W
Dec 12, 2019 - 08:15 PM EST / 2019.12.13 0115 UTC
Wind: Calm:0
Visibility: 10 mile(s):0
Sky conditions: overcast
Temperature: 45.9 F (7.7 C)
Dew Point: 33.4 F (0.8 C)
Relative Humidity: 61%
Pressure (altimeter): 30.04 in. Hg (1017 hPa)
ob: KCUH 130115Z AUTO 00000KT 10SM OVC048 08/01 A3004 RMK AO2 T00770008
cycle: 1

Station Type Date Time Source
KCUH TAF UTC NOAA

Error!

Example: see airport list